Glen Oaks, New York
Current Conditions -  °F | °C
As of 3:51 PM on Friday 28 Nov 2014 (Local Time) from KJFK Reporting Station
Scattered Clouds Scattered Clouds  
Wind Chill: -4°   Ceiling: Unl
Heat Index:   Visibility: 10mi
Dew Point: -10°   Wind: 16mph
Humidity: 42%   Direction: 310°NW
Pressure: 30.19"   Gusts: NA
Location:  40.75°N, 73.71°W
Report Text: KJFK 282051Z 31014KT 10SM SCT048 02/M10 A3019 RMK AO2 SLP224 T00171100 53011
Loading
Personal Weather Stations






























Interactive Weather Map New forecast layout! Learn more

10-Day Weather Forecast

Advertisements
Track Severe Weather on mobile